createdAt,value
2023-05-13T00:00:32.002Z,14.40
2023-05-13T00:02:59.325Z,14.40
2023-05-13T00:05:26.609Z,14.40
2023-05-13T00:07:53.685Z,14.40
2023-05-13T00:10:21.097Z,14.30
2023-05-13T00:12:48.779Z,14.30
2023-05-13T00:15:15.943Z,14.30
2023-05-13T00:17:43.016Z,14.20
2023-05-13T00:20:10.327Z,14.20
2023-05-13T00:22:37.380Z,14.20
2023-05-13T00:25:04.696Z,14.20
2023-05-13T00:27:32.952Z,14.20
2023-05-13T00:30:00.255Z,14.20
2023-05-13T00:32:28.095Z,14.00
2023-05-13T00:34:55.186Z,14.00
2023-05-13T00:37:22.316Z,14.00
2023-05-13T00:39:49.484Z,14.00
2023-05-13T00:42:16.919Z,14.00
2023-05-13T00:44:44.046Z,14.00
2023-05-13T00:47:12.191Z,14.00
2023-05-13T00:49:39.347Z,14.00
2023-05-13T00:52:06.689Z,13.90
2023-05-13T00:54:33.756Z,13.90
2023-05-13T00:57:01.015Z,13.90
2023-05-13T00:59:30.789Z,13.90
2023-05-13T01:02:00.749Z,13.90
2023-05-13T01:04:33.771Z,13.90
2023-05-13T01:07:43.226Z,13.80
2023-05-13T01:10:22.765Z,13.70
2023-05-13T01:12:57.049Z,13.80
2023-05-13T01:15:27.162Z,13.80
2023-05-13T01:18:02.561Z,13.80
2023-05-13T01:20:31.211Z,13.80
2023-05-13T01:22:58.307Z,13.80
2023-05-13T01:25:28.086Z,13.70
2023-05-13T01:27:55.492Z,13.70
2023-05-13T01:30:24.036Z,13.80
2023-05-13T01:32:52.587Z,13.80
2023-05-13T01:35:20.748Z,13.70
2023-05-13T01:37:50.286Z,13.70
2023-05-13T01:40:31.291Z,13.60
2023-05-13T01:43:00.927Z,13.70
2023-05-13T01:45:30.055Z,13.70
2023-05-13T01:47:57.409Z,13.70
2023-05-13T01:50:24.883Z,13.80
2023-05-13T01:52:52.079Z,13.70
2023-05-13T01:55:19.566Z,13.70
2023-05-13T01:57:46.630Z,13.70
2023-05-13T02:00:14.270Z,13.60
2023-05-13T02:02:41.949Z,13.70
2023-05-13T02:05:09.547Z,13.70
2023-05-13T02:07:36.713Z,13.70
2023-05-13T02:10:03.994Z,13.70
2023-05-13T02:12:32.099Z,13.90
2023-05-13T02:14:59.610Z,13.90
2023-05-13T02:17:26.917Z,13.80
2023-05-13T02:19:54.285Z,13.80
2023-05-13T02:22:21.358Z,13.90
2023-05-13T02:24:48.498Z,14.00
2023-05-13T02:27:16.608Z,14.00
2023-05-13T02:29:43.690Z,13.90
2023-05-13T02:32:10.954Z,14.00
2023-05-13T02:34:38.154Z,13.90
2023-05-13T02:37:06.262Z,13.90
2023-05-13T02:39:33.350Z,13.90
2023-05-13T02:42:03.036Z,14.00
2023-05-13T02:44:30.180Z,14.00
2023-05-13T02:46:57.490Z,14.00
2023-05-13T02:49:24.587Z,14.10
2023-05-13T02:51:51.626Z,14.10
2023-05-13T02:54:18.813Z,14.10
2023-05-13T02:56:45.924Z,14.20
2023-05-13T02:59:12.989Z,14.20
2023-05-13T03:01:40.240Z,14.30
2023-05-13T03:04:07.384Z,14.30
2023-05-13T03:06:34.509Z,14.30
2023-05-13T03:09:01.603Z,14.50
2023-05-13T03:11:28.972Z,14.40
2023-05-13T03:13:56.061Z,14.60
2023-05-13T03:16:26.991Z,14.40
2023-05-13T03:18:54.230Z,14.60
2023-05-13T03:21:21.346Z,14.50
2023-05-13T03:23:48.537Z,14.50
2023-05-13T03:26:16.680Z,14.40
2023-05-13T03:28:43.896Z,14.70
2023-05-13T03:31:11.002Z,14.70
2023-05-13T03:33:38.126Z,14.80
2023-05-13T03:36:07.192Z,15.00
2023-05-13T03:38:34.332Z,15.10
2023-05-13T03:41:01.476Z,15.20
2023-05-13T03:43:29.150Z,15.40
2023-05-13T03:45:56.482Z,15.30
2023-05-13T03:48:23.996Z,15.20
2023-05-13T03:50:53.140Z,15.50
2023-05-13T03:53:20.247Z,15.40
2023-05-13T03:55:47.455Z,15.30
2023-05-13T03:58:16.424Z,15.60
2023-05-13T04:00:48.211Z,15.60
2023-05-13T04:03:17.568Z,15.70
2023-05-13T04:05:48.795Z,15.80
2023-05-13T04:08:16.496Z,15.50
2023-05-13T04:10:44.127Z,15.80
2023-05-13T04:13:11.565Z,15.90
2023-05-13T04:15:38.634Z,15.90
2023-05-13T04:18:06.307Z,15.90
2023-05-13T04:20:33.586Z,16.00
2023-05-13T04:23:01.954Z,16.10
2023-05-13T04:25:29.383Z,16.10
2023-05-13T04:27:56.446Z,16.00
2023-05-13T04:30:23.962Z,16.40
2023-05-13T04:32:51.422Z,16.20
2023-05-13T04:35:19.065Z,16.20
2023-05-13T04:37:46.189Z,16.10
2023-05-13T04:40:13.534Z,16.50
2023-05-13T04:42:40.697Z,16.90
2023-05-13T04:45:08.288Z,17.00
2023-05-13T04:47:35.568Z,16.90
2023-05-13T04:50:02.900Z,17.10
2023-05-13T04:52:32.344Z,16.80
2023-05-13T04:54:59.615Z,17.20
2023-05-13T04:57:26.716Z,17.00
2023-05-13T04:59:53.936Z,17.00
2023-05-13T05:02:21.173Z,17.00
2023-05-13T05:04:49.564Z,17.10
2023-05-13T05:07:16.714Z,17.20
2023-05-13T05:09:43.859Z,17.40
2023-05-13T05:12:11.158Z,17.60
2023-05-13T05:14:38.404Z,17.40
2023-05-13T05:17:05.534Z,17.40
2023-05-13T05:19:32.752Z,17.60
2023-05-13T05:21:59.888Z,17.80
2023-05-13T05:24:27.033Z,18.00
2023-05-13T05:26:54.196Z,18.20
2023-05-13T05:29:21.552Z,18.30
2023-05-13T05:31:49.297Z,18.20
2023-05-13T05:34:16.403Z,18.40
2023-05-13T05:36:43.536Z,18.50
2023-05-13T05:39:11.335Z,18.60
2023-05-13T05:41:38.592Z,18.70
2023-05-13T05:44:05.873Z,18.70
2023-05-13T05:46:33.147Z,18.60
2023-05-13T05:49:00.940Z,19.10
2023-05-13T05:51:28.038Z,19.20
2023-05-13T05:53:55.306Z,19.40
2023-05-13T05:56:22.410Z,19.10
2023-05-13T05:58:49.493Z,19.20
2023-05-13T06:01:16.732Z,19.30
2023-05-13T06:03:44.096Z,19.70
2023-05-13T06:06:11.191Z,19.50
2023-05-13T06:08:38.550Z,19.90
2023-05-13T06:11:05.981Z,20.20
2023-05-13T06:13:33.087Z,19.60
2023-05-13T06:16:00.370Z,19.70
2023-05-13T06:18:27.703Z,20.00
2023-05-13T06:20:54.844Z,19.60
2023-05-13T06:23:21.959Z,20.00
2023-05-13T06:25:49.257Z,20.10
2023-05-13T06:28:16.398Z,19.80
2023-05-13T06:30:44.450Z,20.20
2023-05-13T06:33:12.860Z,20.00
2023-05-13T06:35:40.583Z,20.30
2023-05-13T06:38:07.784Z,20.90
2023-05-13T06:40:35.019Z,20.80
2023-05-13T06:43:02.190Z,20.80
2023-05-13T06:45:29.406Z,20.70
2023-05-13T06:47:56.779Z,21.00
2023-05-13T06:50:24.124Z,21.40
2023-05-13T06:52:51.598Z,21.70
2023-05-13T06:55:19.173Z,21.90
2023-05-13T06:57:47.466Z,21.70
2023-05-13T07:00:16.236Z,22.10
2023-05-13T07:02:43.830Z,21.80
2023-05-13T07:05:12.514Z,21.30
2023-05-13T07:07:39.697Z,20.90
2023-05-13T07:10:07.352Z,21.10
2023-05-13T07:12:34.699Z,21.70
2023-05-13T07:15:01.973Z,21.60
2023-05-13T07:17:33.096Z,21.90
2023-05-13T07:20:00.363Z,22.00
2023-05-13T07:22:28.078Z,22.10
2023-05-13T07:24:57.215Z,22.10
2023-05-13T07:27:24.395Z,22.70
2023-05-13T07:29:51.787Z,22.70
2023-05-13T07:32:18.988Z,23.00
2023-05-13T07:34:46.219Z,23.30
2023-05-13T07:37:13.780Z,22.60
2023-05-13T07:39:40.932Z,22.50
2023-05-13T07:42:08.337Z,22.30
2023-05-13T07:44:35.531Z,22.30
2023-05-13T07:47:02.741Z,21.70
2023-05-13T07:49:30.014Z,22.10
2023-05-13T07:51:58.961Z,22.30
2023-05-13T07:54:26.370Z,22.00
2023-05-13T07:56:53.529Z,22.80
2023-05-13T07:59:20.706Z,23.00
2023-05-13T08:01:48.055Z,22.80
2023-05-13T08:04:15.741Z,23.10
2023-05-13T08:06:43.067Z,22.80
2023-05-13T08:09:12.400Z,23.40
2023-05-13T08:11:39.521Z,23.80
2023-05-13T08:14:06.897Z,23.20
2023-05-13T08:16:37.396Z,23.70
2023-05-13T08:19:05.071Z,23.40
2023-05-13T08:21:33.042Z,23.90
2023-05-13T08:24:00.247Z,24.30
2023-05-13T08:26:27.978Z,24.20
2023-05-13T08:28:55.441Z,23.40
2023-05-13T08:31:24.781Z,22.60
2023-05-13T08:33:53.492Z,23.10
2023-05-13T08:36:25.453Z,23.40
2023-05-13T08:38:52.855Z,23.50
2023-05-13T08:41:22.056Z,23.80
2023-05-13T08:43:52.249Z,23.50
2023-05-13T08:46:23.153Z,23.60
2023-05-13T08:48:50.503Z,23.80
2023-05-13T08:51:17.937Z,23.50
2023-05-13T08:53:46.623Z,24.00
2023-05-13T08:56:14.365Z,25.10
2023-05-13T08:58:42.160Z,24.90
2023-05-13T09:01:09.775Z,25.20
2023-05-13T09:03:46.800Z,24.50
2023-05-13T09:06:14.124Z,24.70
2023-05-13T09:08:41.422Z,24.80
2023-05-13T09:11:08.724Z,24.30
2023-05-13T09:13:36.067Z,24.00
2023-05-13T09:16:03.327Z,24.90
2023-05-13T09:18:34.402Z,24.20
2023-05-13T09:21:27.227Z,24.90
2023-05-13T09:24:18.835Z,24.10
2023-05-13T09:26:46.823Z,24.50
2023-05-13T09:29:22.690Z,24.50
2023-05-13T09:32:01.041Z,25.20
2023-05-13T09:34:35.774Z,25.20
2023-05-13T09:37:05.788Z,24.20
2023-05-13T09:39:43.433Z,24.10
2023-05-13T09:42:22.497Z,24.50
2023-05-13T09:44:50.256Z,24.50
2023-05-13T09:47:18.041Z,24.10
2023-05-13T09:49:53.708Z,24.80
2023-05-13T09:52:22.453Z,25.30
2023-05-13T09:54:49.828Z,25.30
2023-05-13T09:57:17.412Z,26.00
2023-05-13T09:59:44.606Z,27.30
2023-05-13T10:02:15.919Z,27.40
2023-05-13T10:04:43.891Z,26.10
2023-05-13T10:07:11.887Z,28.40
2023-05-13T10:09:41.029Z,29.30
2023-05-13T10:12:12.086Z,26.90
2023-05-13T10:14:39.956Z,27.40
2023-05-13T10:17:08.082Z,26.60
2023-05-13T10:19:36.472Z,25.30
2023-05-13T10:22:04.993Z,24.90
2023-05-13T10:24:33.401Z,27.40
2023-05-13T10:27:02.503Z,26.50
2023-05-13T10:29:29.969Z,29.10
2023-05-13T10:32:00.036Z,29.70
2023-05-13T10:34:28.668Z,29.90
2023-05-13T10:37:14.880Z,30.70
2023-05-13T10:40:18.988Z,29.90
2023-05-13T10:43:15.896Z,28.80
2023-05-13T10:45:49.050Z,28.50
2023-05-13T10:48:18.058Z,27.40
2023-05-13T10:51:03.376Z,27.50
2023-05-13T10:53:38.261Z,29.80
2023-05-13T10:56:08.202Z,29.40
2023-05-13T10:58:39.540Z,30.00
2023-05-13T11:01:39.304Z,28.20
2023-05-13T11:04:06.956Z,29.60
2023-05-13T11:06:39.824Z,27.30
2023-05-13T11:09:14.924Z,26.50
2023-05-13T11:11:47.014Z,27.20
2023-05-13T11:14:21.966Z,27.90
2023-05-13T11:16:56.636Z,27.20
2023-05-13T11:19:27.669Z,27.80
2023-05-13T11:22:00.145Z,27.40
2023-05-13T11:24:27.587Z,28.00
2023-05-13T11:26:58.128Z,27.20
2023-05-13T11:29:30.001Z,26.10
2023-05-13T11:32:00.810Z,27.20
2023-05-13T11:34:29.422Z,28.00
2023-05-13T11:37:19.084Z,27.90
2023-05-13T11:39:46.228Z,28.10
2023-05-13T11:42:14.032Z,26.70
2023-05-13T11:44:52.165Z,27.40
2023-05-13T11:47:28.684Z,26.80
2023-05-13T11:49:56.149Z,27.70
2023-05-13T11:52:23.438Z,27.20
2023-05-13T11:54:55.834Z,27.30
2023-05-13T11:57:34.404Z,28.00
2023-05-13T12:00:08.161Z,28.10
2023-05-13T12:02:40.849Z,28.50
2023-05-13T12:05:09.915Z,27.40
2023-05-13T12:07:39.851Z,26.00
2023-05-13T12:10:08.112Z,27.20
2023-05-13T12:12:41.041Z,27.30
2023-05-13T12:15:11.816Z,27.10
2023-05-13T12:17:39.264Z,27.00
2023-05-13T12:20:17.140Z,27.30
2023-05-13T12:22:44.911Z,26.90
2023-05-13T12:25:48.028Z,26.50
2023-05-13T12:28:19.546Z,27.20
2023-05-13T12:31:01.523Z,27.80
2023-05-13T12:33:32.770Z,29.30
2023-05-13T12:36:15.408Z,29.90
2023-05-13T12:38:55.500Z,28.00
2023-05-13T12:41:26.179Z,28.30
2023-05-13T12:44:02.209Z,27.90
2023-05-13T12:46:29.921Z,25.90
2023-05-13T12:49:00.040Z,26.30
2023-05-13T12:51:28.235Z,26.60
2023-05-13T12:53:56.236Z,27.10
2023-05-13T12:56:24.669Z,26.50
2023-05-13T12:58:53.938Z,27.60
2023-05-13T13:01:21.237Z,27.80
2023-05-13T13:03:50.109Z,27.60
2023-05-13T13:06:18.824Z,26.30
2023-05-13T13:08:46.538Z,27.50
2023-05-13T13:11:18.854Z,26.20
2023-05-13T13:13:46.665Z,25.80
2023-05-13T13:16:14.792Z,27.10
2023-05-13T13:18:42.876Z,27.00
2023-05-13T13:21:10.891Z,26.00
2023-05-13T13:23:41.110Z,26.70
2023-05-13T13:26:08.675Z,26.60
2023-05-13T13:28:36.095Z,27.40
2023-05-13T13:31:03.285Z,27.20
2023-05-13T13:33:30.765Z,27.30
2023-05-13T13:35:58.127Z,26.90
2023-05-13T13:38:25.415Z,26.70
2023-05-13T13:40:52.685Z,27.00
2023-05-13T13:43:20.155Z,26.90
2023-05-13T13:45:47.459Z,26.70
2023-05-13T13:48:14.784Z,26.90
2023-05-13T13:50:42.244Z,25.90
2023-05-13T13:53:09.694Z,26.40
2023-05-13T13:55:37.017Z,27.00
2023-05-13T13:58:04.162Z,27.50
2023-05-13T14:00:31.871Z,27.40
2023-05-13T14:02:59.252Z,27.40
2023-05-13T14:05:27.035Z,27.00
2023-05-13T14:07:55.847Z,27.50
2023-05-13T14:10:23.261Z,26.60
2023-05-13T14:12:50.568Z,27.60
2023-05-13T14:15:18.081Z,28.80
2023-05-13T14:17:45.573Z,27.50
2023-05-13T14:20:13.052Z,29.40
2023-05-13T14:22:40.588Z,28.10
2023-05-13T14:25:09.475Z,26.40
2023-05-13T14:27:36.839Z,25.00
2023-05-13T14:30:05.382Z,24.50
2023-05-13T14:32:33.937Z,23.40
2023-05-13T14:35:01.282Z,23.10
2023-05-13T14:37:29.724Z,23.30
2023-05-13T14:39:56.859Z,23.20
2023-05-13T14:42:24.112Z,23.10
2023-05-13T14:44:51.351Z,23.10
2023-05-13T14:47:18.800Z,22.80
2023-05-13T14:49:46.379Z,23.00
2023-05-13T14:52:13.511Z,23.50
2023-05-13T14:54:40.743Z,23.20
2023-05-13T14:57:08.404Z,23.20
2023-05-13T14:59:35.610Z,23.50
2023-05-13T15:02:03.673Z,23.20
2023-05-13T15:04:31.091Z,23.30
2023-05-13T15:06:58.813Z,23.40
2023-05-13T15:09:26.040Z,23.60
2023-05-13T15:11:53.306Z,23.20
2023-05-13T15:14:26.450Z,23.30
2023-05-13T15:16:54.018Z,23.00
2023-05-13T15:19:21.375Z,23.10
2023-05-13T15:21:48.563Z,22.70
2023-05-13T15:24:15.896Z,22.40
2023-05-13T15:26:43.231Z,22.30
2023-05-13T15:29:10.464Z,22.40
2023-05-13T15:31:38.639Z,22.30
2023-05-13T15:34:05.877Z,22.10
2023-05-13T15:36:35.447Z,22.00
2023-05-13T15:39:02.895Z,22.10
2023-05-13T15:41:30.232Z,21.90
2023-05-13T15:43:57.990Z,22.10
2023-05-13T15:46:26.017Z,22.00
2023-05-13T15:48:53.309Z,21.90
2023-05-13T15:51:20.905Z,21.80
2023-05-13T15:53:48.050Z,21.80
2023-05-13T15:56:15.344Z,22.00
2023-05-13T15:58:42.535Z,21.70
2023-05-13T16:01:09.808Z,21.70
2023-05-13T16:03:38.675Z,21.60
2023-05-13T16:06:06.450Z,21.60
2023-05-13T16:08:34.004Z,21.60
2023-05-13T16:11:01.492Z,21.70
2023-05-13T16:13:29.003Z,21.70
2023-05-13T16:15:56.347Z,21.70
2023-05-13T16:18:25.149Z,22.00
2023-05-13T16:20:52.857Z,21.70
2023-05-13T16:23:22.088Z,21.80
2023-05-13T16:25:49.409Z,21.70
2023-05-13T16:28:16.697Z,21.70
2023-05-13T16:30:44.662Z,21.80
2023-05-13T16:33:11.870Z,21.80
2023-05-13T16:35:39.218Z,21.70
2023-05-13T16:38:13.138Z,21.50
2023-05-13T16:40:40.493Z,21.60
2023-05-13T16:43:07.692Z,21.60
2023-05-13T16:45:34.948Z,21.60
2023-05-13T16:48:02.718Z,21.50
2023-05-13T16:50:30.368Z,21.50
2023-05-13T16:52:57.658Z,21.40
2023-05-13T16:55:26.240Z,21.40
2023-05-13T16:57:56.065Z,21.60
2023-05-13T17:00:23.667Z,21.60
2023-05-13T17:02:51.438Z,21.30
2023-05-13T17:05:19.848Z,21.40
2023-05-13T17:07:47.028Z,21.10
2023-05-13T17:10:14.255Z,21.10
2023-05-13T17:12:41.678Z,21.10
2023-05-13T17:15:09.430Z,20.80
2023-05-13T17:17:36.865Z,20.70
2023-05-13T17:20:05.577Z,20.70
2023-05-13T17:22:32.880Z,20.70
2023-05-13T17:25:00.040Z,20.70
2023-05-13T17:27:27.666Z,20.60
2023-05-13T17:29:55.004Z,20.50
2023-05-13T17:32:22.828Z,20.50
2023-05-13T17:34:50.543Z,20.70
2023-05-13T17:37:17.818Z,21.00
2023-05-13T17:39:45.019Z,20.60
2023-05-13T17:42:12.476Z,20.50
2023-05-13T17:44:39.827Z,20.40
2023-05-13T17:47:07.631Z,20.50
2023-05-13T17:49:34.896Z,20.50
2023-05-13T17:52:04.631Z,20.70
2023-05-13T17:54:32.351Z,20.40
2023-05-13T17:56:59.583Z,20.40
2023-05-13T17:59:29.668Z,20.30
2023-05-13T18:01:56.917Z,20.20
2023-05-13T18:04:24.662Z,20.10
2023-05-13T18:06:52.888Z,20.10
2023-05-13T18:09:20.316Z,20.00
2023-05-13T18:11:47.698Z,20.00
2023-05-13T18:14:15.207Z,19.90
2023-05-13T18:16:44.502Z,19.80
2023-05-13T18:19:12.846Z,19.70
2023-05-13T18:21:40.108Z,19.90
2023-05-13T18:24:07.952Z,19.80
2023-05-13T18:26:35.325Z,19.80
2023-05-13T18:29:02.501Z,19.70
2023-05-13T18:31:29.785Z,19.70
2023-05-13T18:33:56.970Z,19.50
2023-05-13T18:36:24.759Z,19.60
2023-05-13T18:38:51.939Z,19.50
2023-05-13T18:41:19.670Z,19.40
2023-05-13T18:43:47.215Z,19.40
2023-05-13T18:46:16.842Z,19.30
2023-05-13T18:48:44.240Z,19.40
2023-05-13T18:51:11.810Z,19.60
2023-05-13T18:53:39.119Z,19.30
2023-05-13T18:56:06.392Z,19.40
2023-05-13T18:58:33.496Z,19.20
2023-05-13T19:01:00.820Z,19.20
2023-05-13T19:03:28.238Z,19.20
2023-05-13T19:05:55.718Z,19.40
2023-05-13T19:08:22.876Z,19.30
2023-05-13T19:10:50.630Z,19.30
2023-05-13T19:13:20.212Z,19.00
2023-05-13T19:15:52.827Z,19.00
2023-05-13T19:18:20.792Z,19.00
2023-05-13T19:20:48.237Z,19.20
2023-05-13T19:23:15.696Z,19.00
2023-05-13T19:25:45.624Z,19.10
2023-05-13T19:28:13.851Z,19.00
2023-05-13T19:30:41.702Z,19.00
2023-05-13T19:33:09.563Z,19.10
2023-05-13T19:35:38.148Z,18.90
2023-05-13T19:38:05.748Z,19.20
2023-05-13T19:40:32.920Z,19.10
2023-05-13T19:43:00.238Z,18.80
2023-05-13T19:45:27.523Z,18.70
2023-05-13T19:47:55.382Z,18.80
2023-05-13T19:50:22.898Z,18.70
2023-05-13T19:52:50.810Z,18.50
2023-05-13T19:55:19.252Z,18.70
2023-05-13T19:57:47.666Z,18.40
2023-05-13T20:00:15.459Z,18.30
2023-05-13T20:02:42.881Z,18.30
2023-05-13T20:05:10.819Z,18.20
2023-05-13T20:07:37.993Z,18.20
2023-05-13T20:10:06.343Z,18.20
2023-05-13T20:12:33.725Z,18.40
2023-05-13T20:15:02.314Z,18.30
2023-05-13T20:17:33.192Z,18.30
2023-05-13T20:20:00.459Z,18.00
2023-05-13T20:22:27.799Z,18.00
2023-05-13T20:24:55.070Z,18.30
2023-05-13T20:27:22.141Z,18.20
2023-05-13T20:29:49.460Z,17.90
2023-05-13T20:32:24.547Z,17.80
2023-05-13T20:34:52.820Z,17.90
2023-05-13T20:37:23.402Z,17.90
2023-05-13T20:39:51.273Z,18.20
2023-05-13T20:42:21.615Z,17.90
2023-05-13T20:44:48.852Z,17.90
2023-05-13T20:47:16.770Z,17.70
2023-05-13T20:49:44.025Z,17.80
2023-05-13T20:52:11.662Z,17.70
2023-05-13T20:54:39.213Z,17.50
2023-05-13T20:57:06.432Z,17.50
2023-05-13T20:59:33.678Z,17.40
2023-05-13T21:02:00.854Z,17.30
2023-05-13T21:04:28.971Z,17.40
2023-05-13T21:06:57.239Z,17.30
2023-05-13T21:09:24.416Z,17.20
2023-05-13T21:11:51.634Z,17.40
2023-05-13T21:14:18.739Z,17.50
2023-05-13T21:16:46.144Z,17.20
2023-05-13T21:19:24.070Z,17.30
2023-05-13T21:21:51.412Z,17.10
2023-05-13T21:24:19.230Z,17.30
2023-05-13T21:26:47.175Z,17.00
2023-05-13T21:29:14.280Z,16.90
2023-05-13T21:31:41.581Z,16.80
2023-05-13T21:34:08.755Z,16.90
2023-05-13T21:36:39.115Z,16.80
2023-05-13T21:39:07.300Z,16.90
2023-05-13T21:41:34.401Z,16.90
2023-05-13T21:44:01.615Z,17.00
2023-05-13T21:46:28.992Z,16.70
2023-05-13T21:48:56.379Z,16.60
2023-05-13T21:51:23.501Z,16.50
2023-05-13T21:53:50.752Z,16.30
2023-05-13T21:56:17.970Z,16.20
2023-05-13T21:58:45.051Z,16.40
2023-05-13T22:01:12.371Z,16.40
2023-05-13T22:03:40.922Z,16.30
2023-05-13T22:06:08.444Z,16.50
2023-05-13T22:08:35.647Z,16.20
2023-05-13T22:11:02.930Z,16.20
2023-05-13T22:13:29.992Z,16.30
2023-05-13T22:15:57.374Z,16.20
2023-05-13T22:18:24.922Z,16.00
2023-05-13T22:20:52.421Z,15.90
2023-05-13T22:23:19.528Z,16.00
2023-05-13T22:25:46.650Z,16.10
2023-05-13T22:28:13.900Z,15.80
2023-05-13T22:30:41.058Z,15.80
2023-05-13T22:33:08.272Z,15.80
2023-05-13T22:35:36.615Z,16.10
2023-05-13T22:38:04.541Z,15.80
2023-05-13T22:40:31.823Z,15.80
2023-05-13T22:42:58.973Z,15.90
2023-05-13T22:45:26.138Z,15.90
2023-05-13T22:47:53.430Z,16.00
2023-05-13T22:50:20.786Z,15.60
2023-05-13T22:52:48.369Z,15.40
2023-05-13T22:55:15.536Z,15.40
2023-05-13T22:57:42.587Z,15.30
2023-05-13T23:00:10.289Z,15.20
2023-05-13T23:02:37.621Z,15.10
2023-05-13T23:05:05.224Z,15.00
2023-05-13T23:07:32.341Z,14.90
2023-05-13T23:09:59.517Z,15.10
2023-05-13T23:12:26.701Z,15.10
2023-05-13T23:14:53.720Z,15.20
2023-05-13T23:17:21.516Z,15.10
2023-05-13T23:19:48.768Z,15.10
2023-05-13T23:22:15.867Z,14.90
2023-05-13T23:24:43.758Z,15.00
2023-05-13T23:27:11.842Z,14.80
2023-05-13T23:29:39.176Z,14.60
2023-05-13T23:32:07.167Z,14.60
2023-05-13T23:34:34.629Z,14.70
2023-05-13T23:37:01.675Z,14.70
2023-05-13T23:39:28.778Z,14.60
2023-05-13T23:41:55.861Z,14.40
2023-05-13T23:44:23.258Z,14.40
2023-05-13T23:46:50.615Z,14.60
2023-05-13T23:49:17.827Z,14.70
2023-05-13T23:51:45.007Z,14.60
2023-05-13T23:54:12.191Z,14.90
2023-05-13T23:56:39.416Z,14.70
2023-05-13T23:59:08.559Z,14.60
